sensor_id;sensor_type;location;lat;lon;timestamp;temperature;humidity
66827;DHT22;53727;45.242;19.796;2022-12-18T00:01:23;77.00;2227.20
66827;DHT22;53727;45.242;19.796;2022-12-18T00:03:50;77.00;2227.20
66827;DHT22;53727;45.242;19.796;2022-12-18T00:06:18;77.00;2227.20
66827;DHT22;53727;45.242;19.796;2022-12-18T00:08:44;77.00;2227.20
66827;DHT22;53727;45.242;19.796;2022-12-18T00:11:14;77.00;2227.20
66827;DHT22;53727;45.242;19.796;2022-12-18T00:13:40;76.90;2227.20
66827;DHT22;53727;45.242;19.796;2022-12-18T00:16:08;76.90;2227.20
66827;DHT22;53727;45.242;19.796;2022-12-18T00:18:34;76.90;2227.20
66827;DHT22;53727;45.242;19.796;2022-12-18T00:21:02;76.90;2227.20
66827;DHT22;53727;45.242;19.796;2022-12-18T00:23:29;76.90;2227.20
66827;DHT22;53727;45.242;19.796;2022-12-18T00:26:10;76.90;2227.20
66827;DHT22;53727;45.242;19.796;2022-12-18T00:28:37;76.90;2227.20
66827;DHT22;53727;45.242;19.796;2022-12-18T00:31:05;76.80;2227.20
66827;DHT22;53727;45.242;19.796;2022-12-18T00:33:31;76.80;2227.20
66827;DHT22;53727;45.242;19.796;2022-12-18T00:36:04;76.80;2227.20
66827;DHT22;53727;45.242;19.796;2022-12-18T00:38:30;76.80;2227.20
66827;DHT22;53727;45.242;19.796;2022-12-18T00:40:56;76.80;2227.20
66827;DHT22;53727;45.242;19.796;2022-12-18T00:43:22;76.80;2227.20
66827;DHT22;53727;45.242;19.796;2022-12-18T00:45:48;52.10;2227.20
66827;DHT22;53727;45.242;19.796;2022-12-18T00:48:14;52.10;2227.20
66827;DHT22;53727;45.242;19.796;2022-12-18T00:50:40;52.00;2227.20
66827;DHT22;53727;45.242;19.796;2022-12-18T00:53:05;52.00;2227.20
66827;DHT22;53727;45.242;19.796;2022-12-18T00:55:34;52.00;2227.20
66827;DHT22;53727;45.242;19.796;2022-12-18T00:57:59;52.00;2227.20
66827;DHT22;53727;45.242;19.796;2022-12-18T01:00:25;52.00;2227.20
66827;DHT22;53727;45.242;19.796;2022-12-18T01:02:51;51.90;2227.20
66827;DHT22;53727;45.242;19.796;2022-12-18T01:05:17;51.90;2227.20
66827;DHT22;53727;45.242;19.796;2022-12-18T01:07:42;51.80;2227.20
66827;DHT22;53727;45.242;19.796;2022-12-18T01:10:10;51.80;2227.20
66827;DHT22;53727;45.242;19.796;2022-12-18T01:12:38;51.70;2227.20
66827;DHT22;53727;45.242;19.796;2022-12-18T01:15:07;51.70;2227.20
66827;DHT22;53727;45.242;19.796;2022-12-18T01:17:33;51.70;2227.20
66827;DHT22;53727;45.242;19.796;2022-12-18T01:19:59;51.70;2227.20
66827;DHT22;53727;45.242;19.796;2022-12-18T01:22:25;51.60;2227.20
66827;DHT22;53727;45.242;19.796;2022-12-18T01:24:51;51.50;2227.20
66827;DHT22;53727;45.242;19.796;2022-12-18T01:27:17;51.50;2227.20
66827;DHT22;53727;45.242;19.796;2022-12-18T01:29:42;51.40;2227.20
66827;DHT22;53727;45.242;19.796;2022-12-18T01:32:08;51.40;2227.20
66827;DHT22;53727;45.242;19.796;2022-12-18T01:34:36;51.40;2227.20
66827;DHT22;53727;45.242;19.796;2022-12-18T01:37:05;51.40;2227.20
66827;DHT22;53727;45.242;19.796;2022-12-18T01:39:31;51.40;2227.20
66827;DHT22;53727;45.242;19.796;2022-12-18T01:42:19;51.40;2227.20
66827;DHT22;53727;45.242;19.796;2022-12-18T01:49:51;51.40;2227.20
66827;DHT22;53727;45.242;19.796;2022-12-18T01:52:17;51.40;2227.20
66827;DHT22;53727;45.242;19.796;2022-12-18T01:54:44;51.40;2227.20
66827;DHT22;53727;45.242;19.796;2022-12-18T01:57:11;51.30;2227.20
66827;DHT22;53727;45.242;19.796;2022-12-18T01:59:37;51.30;2227.20
66827;DHT22;53727;45.242;19.796;2022-12-18T02:02:04;51.30;2227.20
66827;DHT22;53727;45.242;19.796;2022-12-18T02:04:30;51.30;2227.20
66827;DHT22;53727;45.242;19.796;2022-12-18T02:07:06;51.30;2227.20
66827;DHT22;53727;45.242;19.796;2022-12-18T02:09:40;51.20;2227.20
66827;DHT22;53727;45.242;19.796;2022-12-18T02:12:16;51.20;2227.20
66827;DHT22;53727;45.242;19.796;2022-12-18T02:17:52;26.50;2201.60
66827;DHT22;53727;45.242;19.796;2022-12-18T02:26:07;51.20;2227.20
66827;DHT22;53727;45.242;19.796;2022-12-18T02:28:42;51.20;2227.20
66827;DHT22;53727;45.242;19.796;2022-12-18T02:31:13;51.40;2227.20
66827;DHT22;53727;45.242;19.796;2022-12-18T02:33:41;51.40;2227.20
66827;DHT22;53727;45.242;19.796;2022-12-18T02:36:09;51.20;2227.20
66827;DHT22;53727;45.242;19.796;2022-12-18T02:38:36;51.20;2227.20
66827;DHT22;53727;45.242;19.796;2022-12-18T02:41:03;51.20;2227.20
66827;DHT22;53727;45.242;19.796;2022-12-18T02:43:30;51.30;2227.20
66827;DHT22;53727;45.242;19.796;2022-12-18T02:45:58;51.20;2227.20
66827;DHT22;53727;45.242;19.796;2022-12-18T02:48:29;26.50;2201.60
66827;DHT22;53727;45.242;19.796;2022-12-18T02:51:34;26.40;2201.60
66827;DHT22;53727;45.242;19.796;2022-12-18T02:56:54;51.20;2227.20
66827;DHT22;53727;45.242;19.796;2022-12-18T02:59:38;51.20;2227.20
66827;DHT22;53727;45.242;19.796;2022-12-18T03:05:22;51.20;2227.20
66827;DHT22;53727;45.242;19.796;2022-12-18T03:07:56;51.20;2227.20
66827;DHT22;53727;45.242;19.796;2022-12-18T03:10:28;26.50;2201.60
66827;DHT22;53727;45.242;19.796;2022-12-18T03:13:17;26.50;2201.60
66827;DHT22;53727;45.242;19.796;2022-12-18T03:15:48;26.50;2201.60
66827;DHT22;53727;45.242;19.796;2022-12-18T03:18:42;26.50;2201.60
66827;DHT22;53727;45.242;19.796;2022-12-18T03:21:06;26.50;2201.60
66827;DHT22;53727;45.242;19.796;2022-12-18T03:23:40;26.30;2201.60
66827;DHT22;53727;45.242;19.796;2022-12-18T03:26:11;26.30;2201.60
66827;DHT22;53727;45.242;19.796;2022-12-18T03:28:46;26.30;2201.60
66827;DHT22;53727;45.242;19.796;2022-12-18T03:31:14;26.40;2201.60
66827;DHT22;53727;45.242;19.796;2022-12-18T03:36:08;26.40;2201.60
66827;DHT22;53727;45.242;19.796;2022-12-18T03:38:34;26.50;2201.60
66827;DHT22;53727;45.242;19.796;2022-12-18T03:43:52;26.40;2201.60
66827;DHT22;53727;45.242;19.796;2022-12-18T03:54:43;26.10;2201.60
66827;DHT22;53727;45.242;19.796;2022-12-18T03:57:15;26.20;2201.60
66827;DHT22;53727;45.242;19.796;2022-12-18T03:59:44;26.30;2201.60
66827;DHT22;53727;45.242;19.796;2022-12-18T04:02:11;26.20;2201.60
66827;DHT22;53727;45.242;19.796;2022-12-18T04:04:38;26.00;2201.60
66827;DHT22;53727;45.242;19.796;2022-12-18T04:07:06;25.90;2201.60
66827;DHT22;53727;45.242;19.796;2022-12-18T04:09:33;26.00;2201.60
66827;DHT22;53727;45.242;19.796;2022-12-18T04:11:59;26.10;2201.60
66827;DHT22;53727;45.242;19.796;2022-12-18T04:14:25;26.10;2201.60
66827;DHT22;53727;45.242;19.796;2022-12-18T04:16:51;26.00;2201.60
66827;DHT22;53727;45.242;19.796;2022-12-18T04:29:01;25.90;2201.60
66827;DHT22;53727;45.242;19.796;2022-12-18T04:31:27;25.80;2201.60
66827;DHT22;53727;45.242;19.796;2022-12-18T04:33:53;25.60;2201.60
66827;DHT22;53727;45.242;19.796;2022-12-18T04:36:19;25.60;2201.60
66827;DHT22;53727;45.242;19.796;2022-12-18T04:38:44;0.90;2201.60
66827;DHT22;53727;45.242;19.796;2022-12-18T04:41:10;0.90;2201.60
66827;DHT22;53727;45.242;19.796;2022-12-18T04:43:36;25.60;2201.60
66827;DHT22;53727;45.242;19.796;2022-12-18T04:46:06;25.70;2201.60
66827;DHT22;53727;45.242;19.796;2022-12-18T04:48:33;25.80;2201.60
66827;DHT22;53727;45.242;19.796;2022-12-18T04:50:59;25.70;2201.60
66827;DHT22;53727;45.242;19.796;2022-12-18T04:53:25;25.60;2201.60
66827;DHT22;53727;45.242;19.796;2022-12-18T04:55:51;25.60;2201.60
66827;DHT22;53727;45.242;19.796;2022-12-18T04:58:27;0.90;2201.60
66827;DHT22;53727;45.242;19.796;2022-12-18T05:00:53;0.80;2201.60
66827;DHT22;53727;45.242;19.796;2022-12-18T05:03:18;0.80;2201.60
66827;DHT22;53727;45.242;19.796;2022-12-18T05:05:48;0.80;2201.60
66827;DHT22;53727;45.242;19.796;2022-12-18T05:08:14;0.80;2201.60
66827;DHT22;53727;45.242;19.796;2022-12-18T05:10:40;0.90;2201.60
66827;DHT22;53727;45.242;19.796;2022-12-18T05:13:05;0.80;2201.60
66827;DHT22;53727;45.242;19.796;2022-12-18T05:15:32;0.80;2201.60
66827;DHT22;53727;45.242;19.796;2022-12-18T05:17:58;0.90;2201.60
66827;DHT22;53727;45.242;19.796;2022-12-18T05:20:25;0.90;2201.60
66827;DHT22;53727;45.242;19.796;2022-12-18T05:22:52;0.90;2201.60
66827;DHT22;53727;45.242;19.796;2022-12-18T05:25:19;0.90;2201.60
66827;DHT22;53727;45.242;19.796;2022-12-18T05:27:44;0.90;2201.60
66827;DHT22;53727;45.242;19.796;2022-12-18T05:30:11;0.90;2201.60
66827;DHT22;53727;45.242;19.796;2022-12-18T05:32:38;0.90;2201.60
66827;DHT22;53727;45.242;19.796;2022-12-18T05:35:05;0.90;2201.60
66827;DHT22;53727;45.242;19.796;2022-12-18T05:37:31;25.60;2201.60
66827;DHT22;53727;45.242;19.796;2022-12-18T05:39:58;25.60;2201.60
66827;DHT22;53727;45.242;19.796;2022-12-18T05:42:24;25.70;2201.60
66827;DHT22;53727;45.242;19.796;2022-12-18T05:44:50;25.60;2201.60
66827;DHT22;53727;45.242;19.796;2022-12-18T05:47:15;25.60;2201.60
66827;DHT22;53727;45.242;19.796;2022-12-18T05:49:41;0.90;2201.60
66827;DHT22;53727;45.242;19.796;2022-12-18T05:52:07;0.90;2201.60
66827;DHT22;53727;45.242;19.796;2022-12-18T05:54:36;0.80;2201.60
66827;DHT22;53727;45.242;19.796;2022-12-18T05:57:01;0.80;2201.60
66827;DHT22;53727;45.242;19.796;2022-12-18T05:59:27;0.70;2201.60
66827;DHT22;53727;45.242;19.796;2022-12-18T06:01:53;0.70;2201.60
66827;DHT22;53727;45.242;19.796;2022-12-18T06:04:20;0.70;2201.60
66827;DHT22;53727;45.242;19.796;2022-12-18T06:06:45;0.60;2201.60
66827;DHT22;53727;45.242;19.796;2022-12-18T06:09:12;0.60;2201.60
66827;DHT22;53727;45.242;19.796;2022-12-18T06:33:38;25.60;2201.60
66827;DHT22;53727;45.242;19.796;2022-12-18T06:36:07;0.80;2201.60
66827;DHT22;53727;45.242;19.796;2022-12-18T06:38:35;0.70;2201.60
66827;DHT22;53727;45.242;19.796;2022-12-18T06:41:13;0.70;2201.60
66827;DHT22;53727;45.242;19.796;2022-12-18T06:43:40;0.70;2201.60
66827;DHT22;53727;45.242;19.796;2022-12-18T06:46:06;0.70;2201.60
66827;DHT22;53727;45.242;19.796;2022-12-18T06:48:33;0.70;2201.60
66827;DHT22;53727;45.242;19.796;2022-12-18T06:50:59;0.70;2201.60
66827;DHT22;53727;45.242;19.796;2022-12-18T06:53:25;0.80;2201.60
66827;DHT22;53727;45.242;19.796;2022-12-18T06:55:51;0.90;2201.60
66827;DHT22;53727;45.242;19.796;2022-12-18T06:58:16;0.90;2201.60
66827;DHT22;53727;45.242;19.796;2022-12-18T07:00:42;25.60;2201.60
66827;DHT22;53727;45.242;19.796;2022-12-18T07:03:10;25.60;2201.60
66827;DHT22;53727;45.242;19.796;2022-12-18T07:05:40;25.60;2201.60
66827;DHT22;53727;45.242;19.796;2022-12-18T07:08:06;25.70;2201.60
66827;DHT22;53727;45.242;19.796;2022-12-18T07:10:32;25.70;2201.60
66827;DHT22;53727;45.242;19.796;2022-12-18T07:12:58;25.80;2201.60
66827;DHT22;53727;45.242;19.796;2022-12-18T07:15:23;25.70;2201.60
66827;DHT22;53727;45.242;19.796;2022-12-18T07:17:49;25.80;2201.60
66827;DHT22;53727;45.242;19.796;2022-12-18T07:20:16;25.80;2201.60
66827;DHT22;53727;45.242;19.796;2022-12-18T07:22:42;25.80;2201.60
66827;DHT22;53727;45.242;19.796;2022-12-18T07:25:07;25.70;2201.60
66827;DHT22;53727;45.242;19.796;2022-12-18T07:27:34;25.70;2201.60
66827;DHT22;53727;45.242;19.796;2022-12-18T07:29:59;25.70;2201.60
66827;DHT22;53727;45.242;19.796;2022-12-18T07:32:25;25.70;2201.60
66827;DHT22;53727;45.242;19.796;2022-12-18T07:34:50;25.70;2201.60
66827;DHT22;53727;45.242;19.796;2022-12-18T07:37:16;25.70;2201.60
66827;DHT22;53727;45.242;19.796;2022-12-18T07:39:42;25.70;2201.60
66827;DHT22;53727;45.242;19.796;2022-12-18T07:42:09;25.70;2201.60
66827;DHT22;53727;45.242;19.796;2022-12-18T07:44:53;25.80;2201.60
66827;DHT22;53727;45.242;19.796;2022-12-18T07:47:19;25.80;2201.60
66827;DHT22;53727;45.242;19.796;2022-12-18T07:49:44;25.80;2201.60
66827;DHT22;53727;45.242;19.796;2022-12-18T07:52:10;25.80;2201.60
66827;DHT22;53727;45.242;19.796;2022-12-18T07:54:37;25.90;2201.60
66827;DHT22;53727;45.242;19.796;2022-12-18T07:57:05;25.90;2201.60
66827;DHT22;53727;45.242;19.796;2022-12-18T07:59:32;25.90;2201.60
66827;DHT22;53727;45.242;19.796;2022-12-18T08:01:58;26.00;2201.60
66827;DHT22;53727;45.242;19.796;2022-12-18T08:04:24;25.90;2201.60
66827;DHT22;53727;45.242;19.796;2022-12-18T08:06:50;25.90;2201.60
66827;DHT22;53727;45.242;19.796;2022-12-18T08:09:18;26.00;2201.60
66827;DHT22;53727;45.242;19.796;2022-12-18T08:11:43;26.10;2201.60
66827;DHT22;53727;45.242;19.796;2022-12-18T08:14:09;26.00;2201.60
66827;DHT22;53727;45.242;19.796;2022-12-18T08:16:36;26.20;2201.60
66827;DHT22;53727;45.242;19.796;2022-12-18T08:19:02;26.30;2201.60
66827;DHT22;53727;45.242;19.796;2022-12-18T08:21:30;26.30;2201.60
66827;DHT22;53727;45.242;19.796;2022-12-18T08:23:58;26.30;2201.60
66827;DHT22;53727;45.242;19.796;2022-12-18T08:26:27;26.30;2201.60
66827;DHT22;53727;45.242;19.796;2022-12-18T08:28:54;26.40;2201.60
66827;DHT22;53727;45.242;19.796;2022-12-18T08:31:24;26.40;2201.60
66827;DHT22;53727;45.242;19.796;2022-12-18T08:33:52;26.40;2201.60
66827;DHT22;53727;45.242;19.796;2022-12-18T08:36:19;26.40;2201.60
66827;DHT22;53727;45.242;19.796;2022-12-18T08:38:46;26.40;2201.60
66827;DHT22;53727;45.242;19.796;2022-12-18T08:41:15;26.40;2201.60
66827;DHT22;53727;45.242;19.796;2022-12-18T08:43:41;26.30;2201.60
66827;DHT22;53727;45.242;19.796;2022-12-18T08:46:27;26.30;2201.60
66827;DHT22;53727;45.242;19.796;2022-12-18T08:48:54;26.40;2201.60
66827;DHT22;53727;45.242;19.796;2022-12-18T08:51:23;26.30;2201.60
66827;DHT22;53727;45.242;19.796;2022-12-18T08:53:49;26.30;2201.60
66827;DHT22;53727;45.242;19.796;2022-12-18T08:56:15;26.30;2201.60
66827;DHT22;53727;45.242;19.796;2022-12-18T08:58:42;26.50;2201.60
66827;DHT22;53727;45.242;19.796;2022-12-18T09:01:10;26.40;2201.60
66827;DHT22;53727;45.242;19.796;2022-12-18T09:03:36;26.30;2201.60
66827;DHT22;53727;45.242;19.796;2022-12-18T09:06:02;26.50;2201.60
66827;DHT22;53727;45.242;19.796;2022-12-18T09:08:29;26.50;2201.60
66827;DHT22;53727;45.242;19.796;2022-12-18T09:10:55;51.20;2227.20
66827;DHT22;53727;45.242;19.796;2022-12-18T09:13:21;51.20;2227.20
66827;DHT22;53727;45.242;19.796;2022-12-18T09:15:52;51.20;2227.20
66827;DHT22;53727;45.242;19.796;2022-12-18T09:18:20;51.20;2227.20
66827;DHT22;53727;45.242;19.796;2022-12-18T09:20:46;51.20;2227.20
66827;DHT22;53727;45.242;19.796;2022-12-18T09:23:12;26.40;2201.60
66827;DHT22;53727;45.242;19.796;2022-12-18T09:25:40;26.40;2201.60
66827;DHT22;53727;45.242;19.796;2022-12-18T09:28:13;26.40;2201.60
66827;DHT22;53727;45.242;19.796;2022-12-18T09:30:49;26.30;2201.60
66827;DHT22;53727;45.242;19.796;2022-12-18T09:33:16;26.40;2201.60
66827;DHT22;53727;45.242;19.796;2022-12-18T09:35:43;26.50;2201.60
66827;DHT22;53727;45.242;19.796;2022-12-18T09:38:12;26.50;2201.60
66827;DHT22;53727;45.242;19.796;2022-12-18T09:40:52;51.20;2227.20
66827;DHT22;53727;45.242;19.796;2022-12-18T09:43:22;51.20;2227.20
66827;DHT22;53727;45.242;19.796;2022-12-18T09:45:53;51.20;2227.20
66827;DHT22;53727;45.242;19.796;2022-12-18T09:48:28;26.50;2201.60
66827;DHT22;53727;45.242;19.796;2022-12-18T09:51:02;26.50;2201.60
66827;DHT22;53727;45.242;19.796;2022-12-18T09:53:32;51.20;2227.20
66827;DHT22;53727;45.242;19.796;2022-12-18T09:56:02;51.20;2227.20
66827;DHT22;53727;45.242;19.796;2022-12-18T09:58:39;51.30;2227.20
66827;DHT22;53727;45.242;19.796;2022-12-18T10:01:23;51.30;2227.20
66827;DHT22;53727;45.242;19.796;2022-12-18T10:03:51;51.20;2227.20
66827;DHT22;53727;45.242;19.796;2022-12-18T10:11:59;51.20;2227.20
66827;DHT22;53727;45.242;19.796;2022-12-18T10:17:31;26.50;2201.60
66827;DHT22;53727;45.242;19.796;2022-12-18T10:23:33;26.50;2201.60
66827;DHT22;53727;45.242;19.796;2022-12-18T10:26:09;51.30;2227.20
66827;DHT22;53727;45.242;19.796;2022-12-18T10:28:38;51.50;2227.20
66827;DHT22;53727;45.242;19.796;2022-12-18T10:33:38;51.30;2227.20
66827;DHT22;53727;45.242;19.796;2022-12-18T10:36:04;51.20;2227.20
66827;DHT22;53727;45.242;19.796;2022-12-18T10:38:32;26.50;2201.60
66827;DHT22;53727;45.242;19.796;2022-12-18T10:40:59;51.20;2227.20
66827;DHT22;53727;45.242;19.796;2022-12-18T10:43:37;51.20;2227.20
66827;DHT22;53727;45.242;19.796;2022-12-18T10:51:07;51.80;2227.20
66827;DHT22;53727;45.242;19.796;2022-12-18T10:53:35;51.80;2227.20
66827;DHT22;53727;45.242;19.796;2022-12-18T10:56:03;51.80;2227.20
66827;DHT22;53727;45.242;19.796;2022-12-18T10:58:32;51.70;2227.20
66827;DHT22;53727;45.242;19.796;2022-12-18T11:01:06;51.70;2227.20
66827;DHT22;53727;45.242;19.796;2022-12-18T11:06:08;51.60;2227.20
66827;DHT22;53727;45.242;19.796;2022-12-18T11:08:36;51.50;2227.20
66827;DHT22;53727;45.242;19.796;2022-12-18T11:11:03;51.50;2227.20
66827;DHT22;53727;45.242;19.796;2022-12-18T11:13:30;51.60;2227.20
66827;DHT22;53727;45.242;19.796;2022-12-18T11:15:57;51.40;2227.20
66827;DHT22;53727;45.242;19.796;2022-12-18T11:18:34;51.30;2227.20
66827;DHT22;53727;45.242;19.796;2022-12-18T11:21:07;51.40;2227.20
66827;DHT22;53727;45.242;19.796;2022-12-18T11:23:34;51.30;2227.20
66827;DHT22;53727;45.242;19.796;2022-12-18T11:26:02;51.60;2227.20
66827;DHT22;53727;45.242;19.796;2022-12-18T11:28:52;51.60;2227.20
66827;DHT22;53727;45.242;19.796;2022-12-18T11:31:28;51.80;2227.20
66827;DHT22;53727;45.242;19.796;2022-12-18T11:36:22;51.70;2227.20
66827;DHT22;53727;45.242;19.796;2022-12-18T11:38:49;51.70;2227.20
66827;DHT22;53727;45.242;19.796;2022-12-18T11:41:34;51.80;2227.20
66827;DHT22;53727;45.242;19.796;2022-12-18T11:44:42;52.00;2227.20
66827;DHT22;53727;45.242;19.796;2022-12-18T11:47:19;52.00;2227.20
66827;DHT22;53727;45.242;19.796;2022-12-18T11:49:49;52.00;2227.20
66827;DHT22;53727;45.242;19.796;2022-12-18T11:52:22;51.60;2227.20
66827;DHT22;53727;45.242;19.796;2022-12-18T11:54:52;51.80;2227.20
66827;DHT22;53727;45.242;19.796;2022-12-18T12:00:15;77.00;2227.20
66827;DHT22;53727;45.242;19.796;2022-12-18T12:11:25;77.30;2227.20
66827;DHT22;53727;45.242;19.796;2022-12-18T12:16:54;77.40;2227.20
66827;DHT22;53727;45.242;19.796;2022-12-18T12:20:00;77.60;2227.20
66827;DHT22;53727;45.242;19.796;2022-12-18T12:38:51;77.50;2227.20
66827;DHT22;53727;45.242;19.796;2022-12-18T12:46:37;77.50;2227.20
66827;DHT22;53727;45.242;19.796;2022-12-18T14:03:25;52.00;2227.20
66827;DHT22;53727;45.242;19.796;2022-12-18T14:06:06;51.90;2227.20
66827;DHT22;53727;45.242;19.796;2022-12-18T14:08:37;51.90;2227.20
66827;DHT22;53727;45.242;19.796;2022-12-18T14:11:04;52.00;2227.20
66827;DHT22;53727;45.242;19.796;2022-12-18T14:13:42;51.90;2227.20
66827;DHT22;53727;45.242;19.796;2022-12-18T14:16:11;51.80;2227.20
66827;DHT22;53727;45.242;19.796;2022-12-18T20:55:58;26.40;2201.60
66827;DHT22;53727;45.242;19.796;2022-12-18T20:58:24;26.20;2201.60
66827;DHT22;53727;45.242;19.796;2022-12-18T21:01:00;26.00;2201.60
66827;DHT22;53727;45.242;19.796;2022-12-18T21:03:26;26.10;2201.60
66827;DHT22;53727;45.242;19.796;2022-12-18T21:05:52;26.20;2201.60
66827;DHT22;53727;45.242;19.796;2022-12-18T21:08:17;26.20;2201.60
66827;DHT22;53727;45.242;19.796;2022-12-18T21:10:43;26.30;2201.60
66827;DHT22;53727;45.242;19.796;2022-12-18T21:13:09;26.30;2201.60
66827;DHT22;53727;45.242;19.796;2022-12-18T21:15:34;26.40;2201.60
66827;DHT22;53727;45.242;19.796;2022-12-18T21:18:00;26.40;2201.60
66827;DHT22;53727;45.242;19.796;2022-12-18T21:20:26;26.50;2201.60
66827;DHT22;53727;45.242;19.796;2022-12-18T21:22:52;26.50;2201.60
66827;DHT22;53727;45.242;19.796;2022-12-18T21:25:18;26.50;2201.60
66827;DHT22;53727;45.242;19.796;2022-12-18T21:27:43;26.40;2201.60
66827;DHT22;53727;45.242;19.796;2022-12-18T21:30:09;26.50;2201.60
66827;DHT22;53727;45.242;19.796;2022-12-18T21:32:35;26.50;2201.60
66827;DHT22;53727;45.242;19.796;2022-12-18T21:35:01;26.50;2201.60
66827;DHT22;53727;45.242;19.796;2022-12-18T21:37:26;51.20;2227.20
66827;DHT22;53727;45.242;19.796;2022-12-18T21:39:53;26.50;2201.60
66827;DHT22;53727;45.242;19.796;2022-12-18T21:42:21;26.50;2201.60
66827;DHT22;53727;45.242;19.796;2022-12-18T21:45:06;51.20;2227.20
66827;DHT22;53727;45.242;19.796;2022-12-18T21:47:31;51.20;2227.20
66827;DHT22;53727;45.242;19.796;2022-12-18T21:49:57;51.20;2227.20
66827;DHT22;53727;45.242;19.796;2022-12-18T21:52:23;51.30;2227.20
66827;DHT22;53727;45.242;19.796;2022-12-18T21:54:48;51.30;2227.20
66827;DHT22;53727;45.242;19.796;2022-12-18T21:57:14;51.40;2227.20
66827;DHT22;53727;45.242;19.796;2022-12-18T21:59:41;51.40;2227.20
66827;DHT22;53727;45.242;19.796;2022-12-18T22:02:12;51.30;2227.20
66827;DHT22;53727;45.242;19.796;2022-12-18T22:04:39;51.30;2227.20
66827;DHT22;53727;45.242;19.796;2022-12-18T22:07:05;51.40;2227.20
66827;DHT22;53727;45.242;19.796;2022-12-18T22:09:31;51.40;2227.20
66827;DHT22;53727;45.242;19.796;2022-12-18T22:11:57;51.40;2227.20
66827;DHT22;53727;45.242;19.796;2022-12-18T22:14:23;51.40;2227.20
66827;DHT22;53727;45.242;19.796;2022-12-18T22:16:50;51.40;2227.20
66827;DHT22;53727;45.242;19.796;2022-12-18T22:19:16;51.40;2227.20
66827;DHT22;53727;45.242;19.796;2022-12-18T22:21:44;51.20;2227.20
66827;DHT22;53727;45.242;19.796;2022-12-18T22:24:18;26.50;2201.60
66827;DHT22;53727;45.242;19.796;2022-12-18T22:26:44;26.40;2201.60
66827;DHT22;53727;45.242;19.796;2022-12-18T22:29:16;26.50;2201.60
66827;DHT22;53727;45.242;19.796;2022-12-18T22:32:04;26.30;2201.60
66827;DHT22;53727;45.242;19.796;2022-12-18T22:34:30;26.30;2201.60
66827;DHT22;53727;45.242;19.796;2022-12-18T22:36:56;26.40;2201.60
66827;DHT22;53727;45.242;19.796;2022-12-18T22:39:26;26.50;2201.60
66827;DHT22;53727;45.242;19.796;2022-12-18T22:41:52;51.20;2227.20
66827;DHT22;53727;45.242;19.796;2022-12-18T22:44:18;51.30;2227.20
66827;DHT22;53727;45.242;19.796;2022-12-18T22:46:46;51.30;2227.20
66827;DHT22;53727;45.242;19.796;2022-12-18T22:49:15;51.30;2227.20
66827;DHT22;53727;45.242;19.796;2022-12-18T22:51:42;51.30;2227.20
66827;DHT22;53727;45.242;19.796;2022-12-18T22:54:08;51.20;2227.20
66827;DHT22;53727;45.242;19.796;2022-12-18T22:56:35;51.30;2227.20
66827;DHT22;53727;45.242;19.796;2022-12-18T22:59:02;51.40;2227.20
66827;DHT22;53727;45.242;19.796;2022-12-18T23:01:28;51.40;2227.20
66827;DHT22;53727;45.242;19.796;2022-12-18T23:03:55;51.40;2227.20
66827;DHT22;53727;45.242;19.796;2022-12-18T23:06:22;51.40;2227.20
66827;DHT22;53727;45.242;19.796;2022-12-18T23:08:48;51.50;2227.20
66827;DHT22;53727;45.242;19.796;2022-12-18T23:11:15;51.40;2227.20
66827;DHT22;53727;45.242;19.796;2022-12-18T23:13:41;51.50;2227.20
66827;DHT22;53727;45.242;19.796;2022-12-18T23:16:10;51.50;2227.20
66827;DHT22;53727;45.242;19.796;2022-12-18T23:18:39;51.50;2227.20
66827;DHT22;53727;45.242;19.796;2022-12-18T23:21:06;51.60;2227.20
66827;DHT22;53727;45.242;19.796;2022-12-18T23:23:34;51.50;2227.20
66827;DHT22;53727;45.242;19.796;2022-12-18T23:26:05;51.60;2227.20
66827;DHT22;53727;45.242;19.796;2022-12-18T23:28:33;51.60;2227.20
66827;DHT22;53727;45.242;19.796;2022-12-18T23:31:07;51.60;2227.20
66827;DHT22;53727;45.242;19.796;2022-12-18T23:33:34;51.60;2227.20
66827;DHT22;53727;45.242;19.796;2022-12-18T23:36:02;51.60;2227.20
66827;DHT22;53727;45.242;19.796;2022-12-18T23:38:29;51.70;2227.20
66827;DHT22;53727;45.242;19.796;2022-12-18T23:40:56;51.70;2227.20
66827;DHT22;53727;45.242;19.796;2022-12-18T23:43:22;51.70;2227.20
66827;DHT22;53727;45.242;19.796;2022-12-18T23:45:49;51.80;2227.20
